Time;durP1;ratioP1;P1;durP2;ratioP2;P2;SDS_P1;SDS_P2;PMS_P1;PMS_P2;Temp;Humidity;BMP_temperature;BMP_pressure;BME280_temperature;BME280_humidity;BME280_pressure;Samples;Min_cycle;Max_cycle;Signal;HPM_P1;HPM_P2
2023/09/02 18:47:32;;;;;;;11.52;4.70;;;;;;;22.96;100.00;101906.34;5028022;27;1942242;-50
2023/09/02 18:49:58;;;;;;;11.25;5.70;;;;;;;23.13;100.00;101910.41;5068821;28;20135;-53
2023/09/02 18:52:25;;;;;;;13.05;5.47;;;;;;;23.19;100.00;101917.00;5063206;28;20447;-54
2023/09/02 18:54:51;;;;;;;12.10;4.68;;;;;;;23.16;100.00;101908.66;5062057;28;20525;-50
2023/09/02 18:57:18;;;;;;;13.55;5.40;;;;;;;23.23;100.00;101919.69;5054490;28;20114;-51
2023/09/02 18:59:44;;;;;;;11.32;5.20;;;;;;;23.29;100.00;101924.22;5064989;28;20060;-51
2023/09/02 19:02:11;;;;;;;10.38;5.45;;;;;;;23.30;100.00;101914.47;5055387;28;20500;-51
2023/09/02 19:04:38;;;;;;;14.85;5.38;;;;;;;23.20;100.00;101914.97;5053160;28;20056;-48
2023/09/02 19:07:04;;;;;;;10.15;5.00;;;;;;;23.04;100.00;101912.47;5057106;28;20662;-48
2023/09/02 19:09:31;;;;;;;11.27;5.28;;;;;;;23.03;100.00;101916.56;5061290;28;20049;-47
2023/09/02 19:11:57;;;;;;;10.15;5.30;;;;;;;23.10;100.00;101910.56;5063022;28;20068;-48
2023/09/02 19:14:24;;;;;;;10.85;4.97;;;;;;;23.20;100.00;101917.78;5055378;28;20084;-48
2023/09/02 19:16:50;;;;;;;12.75;5.68;;;;;;;23.10;100.00;101922.72;5061621;28;20053;-47
2023/09/02 19:19:17;;;;;;;15.25;5.70;;;;;;;23.08;100.00;101911.03;5061139;28;20067;-50
2023/09/02 19:21:44;;;;;;;11.88;5.50;;;;;;;23.16;100.00;101915.13;5056231;28;20140;-51
2023/09/02 19:24:10;;;;;;;14.05;6.18;;;;;;;23.26;100.00;101916.66;5062463;28;20095;-51
2023/09/02 19:26:37;;;;;;;12.05;5.88;;;;;;;23.26;100.00;101919.50;5050603;28;20644;-49
2023/09/02 19:29:03;;;;;;;11.25;5.70;;;;;;;23.25;100.00;101925.69;5057489;28;20052;-48
2023/09/02 19:31:30;;;;;;;11.27;5.32;;;;;;;23.28;100.00;101930.38;5058264;28;20185;-50
2023/09/02 19:33:56;;;;;;;14.85;5.80;;;;;;;23.26;100.00;101927.25;5060621;28;20579;-50
2023/09/02 19:36:27;;;;;;;12.07;5.50;;;;;;;23.28;100.00;101934.00;5063812;28;20147;-51
2023/09/02 19:38:56;;;;;;;12.90;5.70;;;;;;;23.31;100.00;101933.06;5054213;28;20071;-47
2023/09/02 19:41:25;;;;;;;15.55;5.43;;;;;;;23.31;100.00;101943.63;5055732;28;20053;-47
2023/09/02 19:43:51;;;;;;;11.88;5.80;;;;;;;23.11;100.00;101937.66;5055096;28;20118;-46
2023/09/02 19:46:18;;;;;;;10.70;5.75;;;;;;;23.01;100.00;101942.56;5052208;28;20330;-48
2023/09/02 19:48:44;;;;;;;12.27;5.70;;;;;;;23.11;100.00;101943.34;5062458;28;20049;-49
2023/09/02 19:51:14;;;;;;;12.60;5.32;;;;;;;23.14;100.00;101939.56;5055074;28;20060;-48
2023/09/02 19:53:41;;;;;;;12.43;6.15;;;;;;;23.22;100.00;101930.22;5063566;28;20128;-48
2023/09/02 19:56:10;;;;;;;11.82;5.80;;;;;;;23.43;100.00;101943.44;5058959;28;20040;-49
2023/09/02 19:58:37;;;;;;;14.40;6.05;;;;;;;23.48;100.00;101941.97;5041303;28;20045;-48
2023/09/02 20:01:19;;;;;;;13.70;5.88;;;;;;;23.57;100.00;101944.81;5049785;28;20049;-50
2023/09/02 20:03:45;;;;;;;19.95;6.20;;;;;;;23.32;100.00;101940.28;5040325;28;20063;-51
2023/09/02 20:06:15;;;;;;;16.20;6.38;;;;;;;23.27;100.00;101946.63;5046314;28;20077;-49
2023/09/02 20:08:42;;;;;;;13.80;5.78;;;;;;;23.18;100.00;101940.16;5046317;28;20049;-47
2023/09/02 20:11:08;;;;;;;11.60;5.78;;;;;;;23.32;100.00;101942.38;5046303;28;20115;-46
2023/09/02 20:13:35;;;;;;;12.35;5.05;;;;;;;23.32;100.00;101940.28;5046926;28;20057;-48
2023/09/02 20:16:03;;;;;;;9.80;5.05;;;;;;;23.32;100.00;101950.88;5049049;28;20041;-47
2023/09/02 20:18:33;;;;;;;13.52;6.05;;;;;;;23.33;100.00;101958.13;5049535;28;20114;-51
2023/09/02 20:21:00;;;;;;;11.63;5.30;;;;;;;23.36;100.00;101954.34;5048427;28;20570;-48
2023/09/02 20:23:26;;;;;;;12.18;6.13;;;;;;;23.31;100.00;101950.09;5043995;28;20091;-48
2023/09/02 20:25:53;;;;;;;12.80;5.70;;;;;;;23.31;100.00;101960.63;5046140;28;20049;-48
2023/09/02 20:28:20;;;;;;;11.85;5.72;;;;;;;23.37;100.00;101967.25;5034693;28;20053;-51
2023/09/02 20:30:51;;;;;;;12.13;6.05;;;;;;;23.42;100.00;101972.31;5041200;28;20159;-47
2023/09/02 20:33:17;;;;;;;14.15;5.60;;;;;;;23.36;100.00;101971.34;5046071;28;20080;-47
2023/09/02 20:35:44;;;;;;;12.60;5.38;;;;;;;23.42;100.00;101970.22;5047838;28;20578;-47
2023/09/02 20:38:10;;;;;;;9.57;5.00;;;;;;;23.50;100.00;101977.16;5046107;28;20054;-47
2023/09/02 20:40:40;;;;;;;10.50;5.05;;;;;;;23.54;100.00;101985.50;5046225;28;20049;-48
2023/09/02 20:43:13;;;;;;;14.00;6.43;;;;;;;23.63;100.00;101985.50;5042514;28;20474;-51
2023/09/02 20:45:41;;;;;;;16.00;5.90;;;;;;;23.53;100.00;101983.94;5047925;28;20060;-49
2023/09/02 20:48:09;;;;;;;12.95;6.10;;;;;;;23.44;100.00;101983.94;5049777;28;20053;-49
2023/09/02 20:50:39;;;;;;;15.15;5.97;;;;;;;23.52;100.00;101985.19;5042397;28;20058;-47
2023/09/02 20:53:07;;;;;;;14.20;5.47;;;;;;;23.57;100.00;101993.84;5042288;28;20045;-48
2023/09/02 20:55:33;;;;;;;11.82;5.97;;;;;;;23.54;100.00;101988.34;5036419;28;20067;-48
2023/09/02 20:58:00;;;;;;;11.07;5.20;;;;;;;23.52;100.00;101996.56;5043717;28;20491;-48
2023/09/02 21:00:26;;;;;;;10.23;5.10;;;;;;;23.52;100.00;102002.22;5041785;28;20091;-48
2023/09/02 21:02:54;;;;;;;10.68;5.45;;;;;;;23.54;100.00;101999.69;5049217;28;20125;-46
2023/09/02 21:05:27;;;;;;;12.73;5.97;;;;;;;23.55;100.00;102004.09;5041311;28;20044;-48
2023/09/02 21:07:53;;;;;;;10.23;5.20;;;;;;;23.50;100.00;102001.91;5038622;28;20145;-48
2023/09/02 21:10:20;;;;;;;11.38;5.63;;;;;;;23.52;100.00;102010.75;5040919;28;20103;-50
2023/09/02 21:12:46;;;;;;;14.75;5.90;;;;;;;23.48;100.00;102008.06;5048801;28;20076;-47
2023/09/02 21:15:13;;;;;;;15.57;7.18;;;;;;;23.51;100.00;102009.94;5032414;28;20072;-48
2023/09/02 21:17:39;;;;;;;11.80;5.53;;;;;;;23.51;100.00;102014.84;5044555;28;20052;-50
2023/09/02 21:20:07;;;;;;;13.63;6.10;;;;;;;23.47;100.00;102017.84;5047075;28;20048;-50
2023/09/02 21:22:36;;;;;;;11.48;5.45;;;;;;;23.51;100.00;102020.50;5035654;28;20796;-47
2023/09/02 21:25:06;;;;;;;17.42;7.03;;;;;;;23.35;100.00;102023.69;5045091;28;20076;-49
2023/09/02 21:27:33;;;;;;;11.52;5.50;;;;;;;23.32;100.00;102025.44;5038541;28;20075;-48
2023/09/02 21:30:00;;;;;;;12.70;5.88;;;;;;;23.55;100.00;102026.81;5043165;28;20077;-46
2023/09/02 21:32:28;;;;;;;13.30;5.90;;;;;;;23.58;100.00;102034.38;5038119;28;20418;-46
2023/09/02 21:34:56;;;;;;;11.10;5.85;;;;;;;23.58;100.00;102035.16;5047104;28;20570;-49
2023/09/02 21:37:23;;;;;;;11.30;5.60;;;;;;;23.58;100.00;102040.03;5040283;28;20104;-48
2023/09/02 21:39:49;;;;;;;12.48;6.13;;;;;;;23.46;100.00;102038.19;5038969;28;20045;-51
2023/09/02 21:42:16;;;;;;;10.95;5.45;;;;;;;23.44;100.00;102035.81;5045699;28;20400;-47
2023/09/02 21:44:43;;;;;;;11.80;6.00;;;;;;;23.57;100.00;102047.00;5037151;28;20080;-47
2023/09/02 21:47:09;;;;;;;9.90;5.63;;;;;;;23.58;100.00;102040.84;5036027;28;20045;-46
2023/09/02 21:49:36;;;;;;;13.82;6.15;;;;;;;23.55;100.00;102049.50;5038502;28;20114;-46
2023/09/02 21:52:02;;;;;;;11.52;5.90;;;;;;;23.31;100.00;102040.88;5036875;28;20537;-46
2023/09/02 21:54:29;;;;;;;11.73;5.90;;;;;;;23.53;100.00;102032.19;5036773;28;20048;-47
2023/09/02 21:56:55;;;;;;;12.30;5.78;;;;;;;23.59;100.00;102033.13;5039703;28;20045;-44
2023/09/02 21:59:22;;;;;;;13.65;5.50;;;;;;;23.53;100.00;102035.78;5039822;28;20116;-49
2023/09/02 22:01:49;;;;;;;12.60;5.50;;;;;;;23.55;100.00;102038.16;5045770;28;20049;-48
2023/09/02 22:04:15;;;;;;;12.80;5.78;;;;;;;23.62;100.00;102043.53;5036140;28;20049;-44
2023/09/02 22:06:42;;;;;;;12.02;5.60;;;;;;;23.58;100.00;102043.69;5046392;28;20090;-49
2023/09/02 22:09:08;;;;;;;15.80;7.45;;;;;;;23.62;100.00;102044.31;5039095;28;20423;-46
2023/09/02 22:11:35;;;;;;;15.45;5.97;;;;;;;23.50;100.00;102042.44;5035179;28;20138;-51
2023/09/02 22:14:01;;;;;;;11.57;5.90;;;;;;;23.49;100.00;102040.09;5040136;28;20475;-49
2023/09/02 22:16:28;;;;;;;13.73;5.82;;;;;;;23.61;100.00;102041.97;5038719;28;20087;-51
2023/09/02 22:18:54;;;;;;;11.45;5.38;;;;;;;23.67;100.00;102054.25;5047592;28;20555;-52
2023/09/02 22:21:38;;;;;;;10.13;5.13;;;;;;;23.67;100.00;102059.94;5047636;28;20557;-49
2023/09/02 22:24:06;;;;;;;9.52;5.07;;;;;;;23.62;100.00;102063.41;5040893;28;20076;-49
2023/09/02 22:26:32;;;;;;;10.15;5.30;;;;;;;23.62;100.00;102067.03;5037996;28;20136;-49
2023/09/02 22:28:59;;;;;;;14.15;6.47;;;;;;;23.60;100.00;102069.59;5044194;28;20045;-50
2023/09/02 22:31:25;;;;;;;11.65;5.60;;;;;;;23.52;100.00;102076.81;5044544;28;20595;-49
2023/09/02 22:33:52;;;;;;;11.10;5.20;;;;;;;23.54;100.00;102082.00;5039794;28;20092;-47
2023/09/02 22:36:19;;;;;;;10.82;5.60;;;;;;;23.52;100.00;102081.72;5048252;28;20574;-49
2023/09/02 22:38:45;;;;;;;11.40;6.13;;;;;;;23.54;100.00;102087.69;5049101;28;20136;-50
2023/09/02 22:41:14;;;;;;;16.05;6.03;;;;;;;23.51;100.00;102089.44;5043488;28;20080;-50
2023/09/02 22:43:41;;;;;;;12.10;6.07;;;;;;;23.46;100.00;102086.44;5035626;28;20049;-46
2023/09/02 22:46:08;;;;;;;12.93;5.95;;;;;;;23.55;100.00;102084.38;5046866;28;20202;-48
2023/09/02 22:48:35;;;;;;;11.77;5.82;;;;;;;23.48;100.00;102081.06;5048450;28;20526;-47
2023/09/02 22:51:06;;;;;;;11.85;6.18;;;;;;;23.57;100.00;102087.53;5048565;28;20044;-47
2023/09/02 22:53:32;;;;;;;10.80;5.50;;;;;;;23.48;100.00;102092.41;5046906;28;20131;-52
2023/09/02 22:55:59;;;;;;;12.95;6.22;;;;;;;23.53;100.00;102083.28;5040383;28;20098;-51
2023/09/02 22:58:26;;;;;;;11.15;5.63;;;;;;;23.55;100.00;102089.25;5028868;28;20041;-47
2023/09/02 23:00:52;;;;;;;11.52;5.65;;;;;;;23.62;100.00;102083.28;5042301;28;20053;-47
2023/09/02 23:03:19;;;;;;;10.88;5.60;;;;;;;23.59;100.00;102084.22;5048768;28;20045;-49
2023/09/02 23:05:47;;;;;;;11.27;5.72;;;;;;;23.53;100.00;102084.03;5046415;28;20203;-48
2023/09/02 23:08:13;;;;;;;11.10;5.43;;;;;;;23.54;100.00;102082.81;5040585;28;20041;-48
2023/09/02 23:10:41;;;;;;;9.98;5.35;;;;;;;23.57;100.00;102092.41;5042564;28;20088;-45
2023/09/02 23:13:07;;;;;;;10.82;5.68;;;;;;;23.59;100.00;102089.91;5041202;28;20076;-47
2023/09/02 23:15:35;;;;;;;13.05;5.90;;;;;;;23.59;100.00;102087.81;5047970;28;20052;-47
2023/09/02 23:18:01;;;;;;;11.73;6.05;;;;;;;23.62;100.00;102094.63;5045673;28;20503;-49
2023/09/02 23:20:29;;;;;;;10.23;5.68;;;;;;;23.65;100.00;102094.47;5044880;28;20609;-48
2023/09/02 23:22:55;;;;;;;13.82;6.28;;;;;;;23.70;100.00;102101.56;5040171;28;20103;-49
2023/09/02 23:25:24;;;;;;;12.18;5.57;;;;;;;23.66;100.00;102101.72;5043909;28;20469;-46
2023/09/02 23:27:51;;;;;;;13.70;6.38;;;;;;;23.63;100.00;102099.84;5048780;28;20049;-46
2023/09/02 23:30:19;;;;;;;13.25;6.18;;;;;;;23.58;100.00;102111.00;5040167;28;20099;-46
2023/09/02 23:32:50;;;;;;;16.48;6.78;;;;;;;23.62;100.00;102106.78;5047986;28;20068;-45
2023/09/02 23:35:17;;;;;;;11.77;6.05;;;;;;;23.60;100.00;102100.81;5045732;28;20569;-44
2023/09/02 23:37:44;;;;;;;11.80;5.90;;;;;;;23.59;100.00;102095.56;5044946;28;20132;-47
2023/09/02 23:40:14;;;;;;;12.93;6.10;;;;;;;23.53;100.00;102086.13;5051036;28;20488;-50
2023/09/02 23:42:42;;;;;;;12.60;6.22;;;;;;;23.57;100.00;102081.06;5051803;28;20076;-48
2023/09/02 23:45:11;;;;;;;12.90;6.38;;;;;;;23.66;100.00;102093.22;5040793;28;20041;-46
2023/09/02 23:47:37;;;;;;;15.48;5.82;;;;;;;23.66;100.00;102096.03;5039461;28;20052;-48
2023/09/02 23:50:04;;;;;;;10.40;5.35;;;;;;;23.58;100.00;102105.34;5046570;28;20095;-51
2023/09/02 23:52:33;;;;;;;11.73;6.38;;;;;;;23.63;100.00;102102.69;5034069;28;20057;-49
2023/09/02 23:55:00;;;;;;;10.68;5.85;;;;;;;23.61;100.00;102112.94;5048409;28;20096;-49
2023/09/02 23:57:26;;;;;;;11.20;5.50;;;;;;;23.61;100.00;102102.38;5051612;28;20420;-49
2023/09/02 23:59:53;;;;;;;11.80;5.65;;;;;;;23.62;100.00;102100.31;5050141;28;20099;-50
